sensor_id;sensor_type;location;lat;lon;timestamp;temperature;humidity
18682;DHT22;9471;51.168;4.154;2022-08-11T00:02:32;24.30;91.90
18682;DHT22;9471;51.168;4.154;2022-08-11T00:05:04;24.30;92.20
18682;DHT22;9471;51.168;4.154;2022-08-11T00:07:32;24.30;92.30
18682;DHT22;9471;51.168;4.154;2022-08-11T00:09:59;24.30;92.60
18682;DHT22;9471;51.168;4.154;2022-08-11T00:12:27;24.30;92.80
18682;DHT22;9471;51.168;4.154;2022-08-11T00:14:59;24.20;92.80
18682;DHT22;9471;51.168;4.154;2022-08-11T00:17:30;24.20;92.90
18682;DHT22;9471;51.168;4.154;2022-08-11T00:20:04;24.20;93.10
18682;DHT22;9471;51.168;4.154;2022-08-11T00:22:32;24.20;93.20
18682;DHT22;9471;51.168;4.154;2022-08-11T00:25:06;24.10;93.30
18682;DHT22;9471;51.168;4.154;2022-08-11T00:27:37;24.10;93.70
18682;DHT22;9471;51.168;4.154;2022-08-11T00:30:06;24.00;93.80
18682;DHT22;9471;51.168;4.154;2022-08-11T00:32:35;23.90;93.80
18682;DHT22;9471;51.168;4.154;2022-08-11T00:35:04;23.90;94.40
18682;DHT22;9471;51.168;4.154;2022-08-11T00:37:33;23.90;94.30
18682;DHT22;9471;51.168;4.154;2022-08-11T00:40:02;23.80;94.30
18682;DHT22;9471;51.168;4.154;2022-08-11T00:42:42;23.80;94.30
18682;DHT22;9471;51.168;4.154;2022-08-11T00:45:15;23.80;94.40
18682;DHT22;9471;51.168;4.154;2022-08-11T00:47:56;23.80;94.60
18682;DHT22;9471;51.168;4.154;2022-08-11T00:50:34;23.90;94.40
18682;DHT22;9471;51.168;4.154;2022-08-11T00:53:24;23.80;94.70
18682;DHT22;9471;51.168;4.154;2022-08-11T00:56:33;23.80;95.00
18682;DHT22;9471;51.168;4.154;2022-08-11T00:59:25;23.70;95.00
18682;DHT22;9471;51.168;4.154;2022-08-11T01:02:05;23.60;95.50
18682;DHT22;9471;51.168;4.154;2022-08-11T01:05:01;23.50;95.50
18682;DHT22;9471;51.168;4.154;2022-08-11T01:14:39;23.50;96.00
18682;DHT22;9471;51.168;4.154;2022-08-11T01:27:12;23.30;97.10
18682;DHT22;9471;51.168;4.154;2022-08-11T01:33:43;23.20;97.30
18682;DHT22;9471;51.168;4.154;2022-08-11T01:36:39;23.20;97.70
18682;DHT22;9471;51.168;4.154;2022-08-11T01:45:41;23.10;97.80
18682;DHT22;9471;51.168;4.154;2022-08-11T01:48:18;23.10;97.90
18682;DHT22;9471;51.168;4.154;2022-08-11T01:51:02;23.10;97.90
18682;DHT22;9471;51.168;4.154;2022-08-11T01:53:43;23.10;97.90
18682;DHT22;9471;51.168;4.154;2022-08-11T01:56:37;23.10;97.90
18682;DHT22;9471;51.168;4.154;2022-08-11T01:59:16;23.00;98.10
18682;DHT22;9471;51.168;4.154;2022-08-11T02:05:16;22.90;98.10
18682;DHT22;9471;51.168;4.154;2022-08-11T02:07:53;22.80;98.50
18682;DHT22;9471;51.168;4.154;2022-08-11T02:10:26;22.80;98.60
18682;DHT22;9471;51.168;4.154;2022-08-11T02:13:18;22.80;98.70
18682;DHT22;9471;51.168;4.154;2022-08-11T02:15:54;22.70;99.00
18682;DHT22;9471;51.168;4.154;2022-08-11T02:18:34;22.70;99.10
18682;DHT22;9471;51.168;4.154;2022-08-11T02:21:22;22.70;99.20
18682;DHT22;9471;51.168;4.154;2022-08-11T02:24:15;22.70;99.40
18682;DHT22;9471;51.168;4.154;2022-08-11T02:26:47;22.60;99.70
18682;DHT22;9471;51.168;4.154;2022-08-11T02:29:20;22.50;99.90
18682;DHT22;9471;51.168;4.154;2022-08-11T02:31:57;22.50;99.90
18682;DHT22;9471;51.168;4.154;2022-08-11T02:34:51;22.60;99.90
18682;DHT22;9471;51.168;4.154;2022-08-11T02:37:26;22.50;99.90
18682;DHT22;9471;51.168;4.154;2022-08-11T02:40:09;22.50;99.90
18682;DHT22;9471;51.168;4.154;2022-08-11T02:42:49;22.50;99.90
18682;DHT22;9471;51.168;4.154;2022-08-11T02:45:31;22.50;99.90
18682;DHT22;9471;51.168;4.154;2022-08-11T02:48:05;22.50;99.90
18682;DHT22;9471;51.168;4.154;2022-08-11T02:50:57;22.50;99.90
18682;DHT22;9471;51.168;4.154;2022-08-11T02:53:37;22.40;99.90
18682;DHT22;9471;51.168;4.154;2022-08-11T02:56:09;22.50;99.90
18682;DHT22;9471;51.168;4.154;2022-08-11T02:58:56;22.40;99.90
18682;DHT22;9471;51.168;4.154;2022-08-11T03:01:47;22.30;99.90
18682;DHT22;9471;51.168;4.154;2022-08-11T03:04:21;22.30;99.90
18682;DHT22;9471;51.168;4.154;2022-08-11T03:06:54;22.30;99.90
18682;DHT22;9471;51.168;4.154;2022-08-11T03:12:10;22.20;99.90
18682;DHT22;9471;51.168;4.154;2022-08-11T03:15:02;22.10;99.90
18682;DHT22;9471;51.168;4.154;2022-08-11T03:18:00;22.10;99.90
18682;DHT22;9471;51.168;4.154;2022-08-11T03:20:37;22.00;99.90
18682;DHT22;9471;51.168;4.154;2022-08-11T03:23:16;22.00;99.90
18682;DHT22;9471;51.168;4.154;2022-08-11T03:25:50;21.90;99.90
18682;DHT22;9471;51.168;4.154;2022-08-11T03:28:30;21.80;99.90
18682;DHT22;9471;51.168;4.154;2022-08-11T03:31:15;21.90;99.90
18682;DHT22;9471;51.168;4.154;2022-08-11T03:33:47;21.80;99.90
18682;DHT22;9471;51.168;4.154;2022-08-11T03:37:04;21.80;99.90
18682;DHT22;9471;51.168;4.154;2022-08-11T03:39:45;21.70;99.90
18682;DHT22;9471;51.168;4.154;2022-08-11T03:42:18;21.70;99.90
18682;DHT22;9471;51.168;4.154;2022-08-11T03:45:06;21.70;99.90
18682;DHT22;9471;51.168;4.154;2022-08-11T03:47:48;21.70;99.90
18682;DHT22;9471;51.168;4.154;2022-08-11T03:53:13;21.60;99.90
18682;DHT22;9471;51.168;4.154;2022-08-11T03:56:19;21.60;99.90
18682;DHT22;9471;51.168;4.154;2022-08-11T04:02:24;21.60;99.90
18682;DHT22;9471;51.168;4.154;2022-08-11T04:05:31;21.50;99.90
18682;DHT22;9471;51.168;4.154;2022-08-11T04:08:25;21.40;99.90
18682;DHT22;9471;51.168;4.154;2022-08-11T04:14:10;21.40;99.90
18682;DHT22;9471;51.168;4.154;2022-08-11T04:17:05;21.40;99.90
18682;DHT22;9471;51.168;4.154;2022-08-11T04:19:54;21.30;99.90
18682;DHT22;9471;51.168;4.154;2022-08-11T04:25:48;21.10;99.90
18682;DHT22;9471;51.168;4.154;2022-08-11T04:28:48;21.20;99.90
18682;DHT22;9471;51.168;4.154;2022-08-11T04:31:33;21.20;99.90
18682;DHT22;9471;51.168;4.154;2022-08-11T04:37:38;21.20;99.90
18682;DHT22;9471;51.168;4.154;2022-08-11T04:47:09;21.10;99.90
18682;DHT22;9471;51.168;4.154;2022-08-11T04:50:16;21.20;99.90
18682;DHT22;9471;51.168;4.154;2022-08-11T04:53:28;21.10;99.90
18682;DHT22;9471;51.168;4.154;2022-08-11T04:56:19;21.00;99.90
18682;DHT22;9471;51.168;4.154;2022-08-11T04:59:14;21.10;99.90
18682;DHT22;9471;51.168;4.154;2022-08-11T05:05:20;20.90;99.90
18682;DHT22;9471;51.168;4.154;2022-08-11T05:08:34;20.90;99.90
18682;DHT22;9471;51.168;4.154;2022-08-11T05:11:33;20.90;99.90
18682;DHT22;9471;51.168;4.154;2022-08-11T05:14:30;21.00;99.90
18682;DHT22;9471;51.168;4.154;2022-08-11T05:17:22;21.00;99.90
18682;DHT22;9471;51.168;4.154;2022-08-11T05:20:10;21.00;99.90
18682;DHT22;9471;51.168;4.154;2022-08-11T05:22:56;21.00;99.90
18682;DHT22;9471;51.168;4.154;2022-08-11T05:25:46;21.10;99.90
18682;DHT22;9471;51.168;4.154;2022-08-11T05:28:34;21.10;99.90
18682;DHT22;9471;51.168;4.154;2022-08-11T05:31:25;21.20;99.90
18682;DHT22;9471;51.168;4.154;2022-08-11T05:34:13;21.30;99.90
18682;DHT22;9471;51.168;4.154;2022-08-11T05:37:04;21.40;99.90
18682;DHT22;9471;51.168;4.154;2022-08-11T05:39:38;21.40;99.90
18682;DHT22;9471;51.168;4.154;2022-08-11T05:42:26;21.50;99.90
18682;DHT22;9471;51.168;4.154;2022-08-11T05:45:13;21.50;99.90
18682;DHT22;9471;51.168;4.154;2022-08-11T05:47:59;21.50;99.90
18682;DHT22;9471;51.168;4.154;2022-08-11T05:50:53;21.60;99.90
18682;DHT22;9471;51.168;4.154;2022-08-11T05:53:45;21.60;99.90
18682;DHT22;9471;51.168;4.154;2022-08-11T05:56:32;21.60;99.90
18682;DHT22;9471;51.168;4.154;2022-08-11T05:59:00;21.70;99.90
18682;DHT22;9471;51.168;4.154;2022-08-11T06:01:30;21.90;99.90
18682;DHT22;9471;51.168;4.154;2022-08-11T06:04:04;21.90;99.90
18682;DHT22;9471;51.168;4.154;2022-08-11T06:06:50;22.00;99.90
18682;DHT22;9471;51.168;4.154;2022-08-11T06:09:26;22.10;99.90
18682;DHT22;9471;51.168;4.154;2022-08-11T06:11:56;22.20;99.90
18682;DHT22;9471;51.168;4.154;2022-08-11T06:14:26;22.30;99.90
18682;DHT22;9471;51.168;4.154;2022-08-11T06:16:56;22.40;99.90
18682;DHT22;9471;51.168;4.154;2022-08-11T06:19:35;22.40;99.90
18682;DHT22;9471;51.168;4.154;2022-08-11T06:22:04;22.50;99.90
18682;DHT22;9471;51.168;4.154;2022-08-11T06:24:32;22.60;99.90
18682;DHT22;9471;51.168;4.154;2022-08-11T06:27:02;22.60;99.90
18682;DHT22;9471;51.168;4.154;2022-08-11T06:29:32;22.60;99.90
18682;DHT22;9471;51.168;4.154;2022-08-11T06:32:02;22.70;99.90
18682;DHT22;9471;51.168;4.154;2022-08-11T06:34:38;22.90;99.90
18682;DHT22;9471;51.168;4.154;2022-08-11T06:37:17;23.00;99.90
18682;DHT22;9471;51.168;4.154;2022-08-11T06:39:51;23.10;99.90
18682;DHT22;9471;51.168;4.154;2022-08-11T06:42:37;23.00;99.90
18682;DHT22;9471;51.168;4.154;2022-08-11T06:45:19;23.10;99.90
18682;DHT22;9471;51.168;4.154;2022-08-11T06:47:51;23.20;99.90
18682;DHT22;9471;51.168;4.154;2022-08-11T06:50:20;23.30;99.90
18682;DHT22;9471;51.168;4.154;2022-08-11T06:53:07;23.50;99.90
18682;DHT22;9471;51.168;4.154;2022-08-11T06:55:40;23.60;99.90
18682;DHT22;9471;51.168;4.154;2022-08-11T06:58:28;23.70;99.90
18682;DHT22;9471;51.168;4.154;2022-08-11T07:01:21;23.80;99.90
18682;DHT22;9471;51.168;4.154;2022-08-11T07:03:58;24.00;99.90
18682;DHT22;9471;51.168;4.154;2022-08-11T07:06:39;23.90;99.90
18682;DHT22;9471;51.168;4.154;2022-08-11T07:09:32;23.90;99.90
18682;DHT22;9471;51.168;4.154;2022-08-11T07:12:39;23.90;99.90
18682;DHT22;9471;51.168;4.154;2022-08-11T07:15:32;24.00;99.90
18682;DHT22;9471;51.168;4.154;2022-08-11T07:18:11;24.20;99.90
18682;DHT22;9471;51.168;4.154;2022-08-11T07:21:08;24.30;99.90
18682;DHT22;9471;51.168;4.154;2022-08-11T07:23:54;24.40;99.90
18682;DHT22;9471;51.168;4.154;2022-08-11T07:26:42;24.60;99.90
18682;DHT22;9471;51.168;4.154;2022-08-11T07:29:30;24.70;99.90
18682;DHT22;9471;51.168;4.154;2022-08-11T07:31:59;24.90;99.50
18682;DHT22;9471;51.168;4.154;2022-08-11T07:34:34;25.00;99.50
18682;DHT22;9471;51.168;4.154;2022-08-11T07:37:09;25.20;99.00
18682;DHT22;9471;51.168;4.154;2022-08-11T07:39:38;25.50;98.00
18682;DHT22;9471;51.168;4.154;2022-08-11T07:42:07;25.70;97.20
18682;DHT22;9471;51.168;4.154;2022-08-11T07:44:35;25.80;96.00
18682;DHT22;9471;51.168;4.154;2022-08-11T07:47:24;25.80;95.60
18682;DHT22;9471;51.168;4.154;2022-08-11T07:50:10;25.80;95.90
18682;DHT22;9471;51.168;4.154;2022-08-11T07:52:57;26.00;94.20
18682;DHT22;9471;51.168;4.154;2022-08-11T07:55:25;26.10;94.50
18682;DHT22;9471;51.168;4.154;2022-08-11T07:57:55;26.20;93.00
18682;DHT22;9471;51.168;4.154;2022-08-11T08:00:43;26.40;92.20
18682;DHT22;9471;51.168;4.154;2022-08-11T08:03:29;26.40;91.30
18682;DHT22;9471;51.168;4.154;2022-08-11T08:06:16;26.60;90.50
18682;DHT22;9471;51.168;4.154;2022-08-11T08:09:01;26.60;90.80
18682;DHT22;9471;51.168;4.154;2022-08-11T08:11:46;26.60;90.20
18682;DHT22;9471;51.168;4.154;2022-08-11T08:14:31;26.60;90.10
18682;DHT22;9471;51.168;4.154;2022-08-11T08:17:17;26.60;86.80
18682;DHT22;9471;51.168;4.154;2022-08-11T08:20:03;26.70;85.90
18682;DHT22;9471;51.168;4.154;2022-08-11T08:22:34;26.70;86.20
18682;DHT22;9471;51.168;4.154;2022-08-11T08:25:01;26.90;86.70
18682;DHT22;9471;51.168;4.154;2022-08-11T08:27:32;27.00;87.10
18682;DHT22;9471;51.168;4.154;2022-08-11T08:30:01;27.20;86.20
18682;DHT22;9471;51.168;4.154;2022-08-11T08:32:45;27.30;85.60
18682;DHT22;9471;51.168;4.154;2022-08-11T08:35:14;27.50;84.80
18682;DHT22;9471;51.168;4.154;2022-08-11T08:37:43;27.60;84.60
18682;DHT22;9471;51.168;4.154;2022-08-11T08:40:10;27.70;84.20
18682;DHT22;9471;51.168;4.154;2022-08-11T08:42:42;27.80;82.40
18682;DHT22;9471;51.168;4.154;2022-08-11T08:45:13;27.80;82.80
18682;DHT22;9471;51.168;4.154;2022-08-11T08:47:45;27.90;81.40
18682;DHT22;9471;51.168;4.154;2022-08-11T08:50:15;28.10;80.00
18682;DHT22;9471;51.168;4.154;2022-08-11T08:52:51;28.20;78.70
18682;DHT22;9471;51.168;4.154;2022-08-11T08:55:19;28.00;77.10
18682;DHT22;9471;51.168;4.154;2022-08-11T08:57:48;28.10;77.60
18682;DHT22;9471;51.168;4.154;2022-08-11T09:00:17;28.20;76.50
18682;DHT22;9471;51.168;4.154;2022-08-11T09:02:45;28.30;75.70
18682;DHT22;9471;51.168;4.154;2022-08-11T09:05:15;28.50;74.00
18682;DHT22;9471;51.168;4.154;2022-08-11T09:07:43;28.50;75.00
18682;DHT22;9471;51.168;4.154;2022-08-11T09:10:14;28.50;73.80
18682;DHT22;9471;51.168;4.154;2022-08-11T09:12:44;28.50;73.10
18682;DHT22;9471;51.168;4.154;2022-08-11T09:15:12;28.50;73.90
18682;DHT22;9471;51.168;4.154;2022-08-11T09:17:43;28.60;73.00
18682;DHT22;9471;51.168;4.154;2022-08-11T09:20:12;28.80;72.00
18682;DHT22;9471;51.168;4.154;2022-08-11T09:22:42;28.90;69.80
18682;DHT22;9471;51.168;4.154;2022-08-11T09:25:30;28.80;69.70
18682;DHT22;9471;51.168;4.154;2022-08-11T09:28:16;28.90;67.50
18682;DHT22;9471;51.168;4.154;2022-08-11T09:30:44;28.90;66.50
18682;DHT22;9471;51.168;4.154;2022-08-11T09:33:14;29.10;67.50
18682;DHT22;9471;51.168;4.154;2022-08-11T09:35:43;29.30;65.60
18682;DHT22;9471;51.168;4.154;2022-08-11T09:38:14;29.30;66.40
18682;DHT22;9471;51.168;4.154;2022-08-11T09:41:02;29.50;65.90
18682;DHT22;9471;51.168;4.154;2022-08-11T09:43:30;29.60;63.50
18682;DHT22;9471;51.168;4.154;2022-08-11T09:46:15;29.50;62.20
18682;DHT22;9471;51.168;4.154;2022-08-11T09:48:45;29.50;62.40
18682;DHT22;9471;51.168;4.154;2022-08-11T09:51:13;29.60;61.60
18682;DHT22;9471;51.168;4.154;2022-08-11T09:53:42;29.60;61.20
18682;DHT22;9471;51.168;4.154;2022-08-11T09:56:15;29.60;61.30
18682;DHT22;9471;51.168;4.154;2022-08-11T09:59:00;29.70;61.30
18682;DHT22;9471;51.168;4.154;2022-08-11T10:01:30;29.80;61.20
18682;DHT22;9471;51.168;4.154;2022-08-11T10:04:04;29.80;60.60
18682;DHT22;9471;51.168;4.154;2022-08-11T10:06:34;29.90;60.10
18682;DHT22;9471;51.168;4.154;2022-08-11T10:09:23;30.10;59.20
18682;DHT22;9471;51.168;4.154;2022-08-11T10:11:56;30.10;59.00
18682;DHT22;9471;51.168;4.154;2022-08-11T10:14:24;30.20;58.40
18682;DHT22;9471;51.168;4.154;2022-08-11T10:17:10;30.20;58.20
18682;DHT22;9471;51.168;4.154;2022-08-11T10:19:39;30.20;56.80
18682;DHT22;9471;51.168;4.154;2022-08-11T10:22:08;30.30;56.60
18682;DHT22;9471;51.168;4.154;2022-08-11T10:24:52;30.20;56.40
18682;DHT22;9471;51.168;4.154;2022-08-11T10:27:38;30.00;56.10
18682;DHT22;9471;51.168;4.154;2022-08-11T10:30:08;30.10;56.50
18682;DHT22;9471;51.168;4.154;2022-08-11T10:32:53;30.00;56.50
18682;DHT22;9471;51.168;4.154;2022-08-11T10:35:40;30.20;55.80
18682;DHT22;9471;51.168;4.154;2022-08-11T10:38:08;30.40;55.70
18682;DHT22;9471;51.168;4.154;2022-08-11T10:40:37;30.60;56.30
18682;DHT22;9471;51.168;4.154;2022-08-11T10:43:07;30.70;53.80
18682;DHT22;9471;51.168;4.154;2022-08-11T10:45:39;30.80;54.00
18682;DHT22;9471;51.168;4.154;2022-08-11T10:48:25;30.90;53.20
18682;DHT22;9471;51.168;4.154;2022-08-11T10:50:54;31.00;52.70
18682;DHT22;9471;51.168;4.154;2022-08-11T10:53:42;30.80;53.70
18682;DHT22;9471;51.168;4.154;2022-08-11T10:56:28;30.90;52.80
18682;DHT22;9471;51.168;4.154;2022-08-11T10:59:15;31.00;52.80
18682;DHT22;9471;51.168;4.154;2022-08-11T11:01:44;31.10;51.60
18682;DHT22;9471;51.168;4.154;2022-08-11T11:04:14;31.00;51.80
18682;DHT22;9471;51.168;4.154;2022-08-11T11:06:49;31.10;52.00
18682;DHT22;9471;51.168;4.154;2022-08-11T11:09:20;31.20;50.50
18682;DHT22;9471;51.168;4.154;2022-08-11T11:11:52;31.30;50.90
18682;DHT22;9471;51.168;4.154;2022-08-11T11:14:41;31.40;51.30
18682;DHT22;9471;51.168;4.154;2022-08-11T11:17:31;31.30;51.00
18682;DHT22;9471;51.168;4.154;2022-08-11T11:20:21;31.30;51.30
18682;DHT22;9471;51.168;4.154;2022-08-11T11:22:52;31.20;51.20
18682;DHT22;9471;51.168;4.154;2022-08-11T11:25:26;31.30;50.50
18682;DHT22;9471;51.168;4.154;2022-08-11T11:28:13;31.30;49.50
18682;DHT22;9471;51.168;4.154;2022-08-11T11:30:53;31.20;49.50
18682;DHT22;9471;51.168;4.154;2022-08-11T11:33:27;31.20;49.70
18682;DHT22;9471;51.168;4.154;2022-08-11T11:36:10;31.40;48.80
18682;DHT22;9471;51.168;4.154;2022-08-11T11:38:40;31.50;49.10
18682;DHT22;9471;51.168;4.154;2022-08-11T11:41:08;31.70;49.00
18682;DHT22;9471;51.168;4.154;2022-08-11T11:43:51;31.60;49.30
18682;DHT22;9471;51.168;4.154;2022-08-11T11:46:21;31.50;48.50
18682;DHT22;9471;51.168;4.154;2022-08-11T11:48:51;31.50;49.30
18682;DHT22;9471;51.168;4.154;2022-08-11T11:51:19;31.60;49.00
18682;DHT22;9471;51.168;4.154;2022-08-11T11:53:47;31.80;48.10
18682;DHT22;9471;51.168;4.154;2022-08-11T11:56:24;31.90;47.70
18682;DHT22;9471;51.168;4.154;2022-08-11T11:58:52;32.00;47.30
18682;DHT22;9471;51.168;4.154;2022-08-11T12:01:38;32.00;47.50
18682;DHT22;9471;51.168;4.154;2022-08-11T12:04:08;32.00;46.80
18682;DHT22;9471;51.168;4.154;2022-08-11T12:06:37;32.10;46.80
18682;DHT22;9471;51.168;4.154;2022-08-11T12:09:04;32.00;45.80
18682;DHT22;9471;51.168;4.154;2022-08-11T12:11:32;32.00;45.70
18682;DHT22;9471;51.168;4.154;2022-08-11T12:14:18;32.00;46.40
18682;DHT22;9471;51.168;4.154;2022-08-11T12:16:48;31.90;45.60
18682;DHT22;9471;51.168;4.154;2022-08-11T12:19:17;32.00;46.00
18682;DHT22;9471;51.168;4.154;2022-08-11T12:21:46;32.10;45.00
18682;DHT22;9471;51.168;4.154;2022-08-11T12:24:33;32.00;44.80
18682;DHT22;9471;51.168;4.154;2022-08-11T12:27:27;32.10;44.40
18682;DHT22;9471;51.168;4.154;2022-08-11T12:29:58;32.30;44.30
18682;DHT22;9471;51.168;4.154;2022-08-11T12:32:30;32.30;44.10
18682;DHT22;9471;51.168;4.154;2022-08-11T12:34:57;32.20;43.70
18682;DHT22;9471;51.168;4.154;2022-08-11T12:37:29;32.10;44.30
18682;DHT22;9471;51.168;4.154;2022-08-11T12:40:00;32.00;44.20
18682;DHT22;9471;51.168;4.154;2022-08-11T12:42:46;32.00;44.30
18682;DHT22;9471;51.168;4.154;2022-08-11T12:45:31;32.00;44.80
18682;DHT22;9471;51.168;4.154;2022-08-11T12:48:09;32.20;45.00
18682;DHT22;9471;51.168;4.154;2022-08-11T12:51:00;32.40;45.00
18682;DHT22;9471;51.168;4.154;2022-08-11T12:53:51;32.60;43.60
18682;DHT22;9471;51.168;4.154;2022-08-11T12:56:20;32.60;43.10
18682;DHT22;9471;51.168;4.154;2022-08-11T12:59:07;32.60;43.70
18682;DHT22;9471;51.168;4.154;2022-08-11T13:01:53;32.70;43.50
18682;DHT22;9471;51.168;4.154;2022-08-11T13:04:41;32.90;43.60
18682;DHT22;9471;51.168;4.154;2022-08-11T13:07:24;32.90;43.20
18682;DHT22;9471;51.168;4.154;2022-08-11T13:09:52;32.80;43.20
18682;DHT22;9471;51.168;4.154;2022-08-11T13:12:21;33.00;42.70
18682;DHT22;9471;51.168;4.154;2022-08-11T13:15:08;33.10;42.20
18682;DHT22;9471;51.168;4.154;2022-08-11T13:17:36;33.20;41.90
18682;DHT22;9471;51.168;4.154;2022-08-11T13:20:08;33.00;42.40
18682;DHT22;9471;51.168;4.154;2022-08-11T13:22:38;32.90;42.20
18682;DHT22;9471;51.168;4.154;2022-08-11T13:25:06;32.90;42.20
18682;DHT22;9471;51.168;4.154;2022-08-11T13:27:34;32.90;43.30
18682;DHT22;9471;51.168;4.154;2022-08-11T13:30:02;32.80;42.20
18682;DHT22;9471;51.168;4.154;2022-08-11T13:32:47;32.70;42.30
18682;DHT22;9471;51.168;4.154;2022-08-11T13:35:17;32.80;42.30
18682;DHT22;9471;51.168;4.154;2022-08-11T13:37:44;32.90;42.00
18682;DHT22;9471;51.168;4.154;2022-08-11T13:40:13;33.00;42.00
18682;DHT22;9471;51.168;4.154;2022-08-11T13:42:43;32.90;42.60
18682;DHT22;9471;51.168;4.154;2022-08-11T13:45:10;33.10;42.50
18682;DHT22;9471;51.168;4.154;2022-08-11T13:47:38;33.20;42.20
18682;DHT22;9471;51.168;4.154;2022-08-11T13:50:06;33.40;42.10
18682;DHT22;9471;51.168;4.154;2022-08-11T13:52:36;33.40;42.00
18682;DHT22;9471;51.168;4.154;2022-08-11T13:55:06;33.40;41.40
18682;DHT22;9471;51.168;4.154;2022-08-11T13:57:34;33.40;41.20
18682;DHT22;9471;51.168;4.154;2022-08-11T14:00:03;33.50;41.00
18682;DHT22;9471;51.168;4.154;2022-08-11T14:02:39;33.60;40.60
18682;DHT22;9471;51.168;4.154;2022-08-11T14:05:10;33.60;40.30
18682;DHT22;9471;51.168;4.154;2022-08-11T14:07:47;33.70;40.50
18682;DHT22;9471;51.168;4.154;2022-08-11T14:10:17;33.70;39.60
18682;DHT22;9471;51.168;4.154;2022-08-11T14:12:49;34.10;39.90
18682;DHT22;9471;51.168;4.154;2022-08-11T14:15:40;34.70;39.40
18682;DHT22;9471;51.168;4.154;2022-08-11T14:18:10;35.30;38.50
18682;DHT22;9471;51.168;4.154;2022-08-11T14:20:41;35.60;37.60
18682;DHT22;9471;51.168;4.154;2022-08-11T14:23:32;35.90;37.70
18682;DHT22;9471;51.168;4.154;2022-08-11T14:26:01;36.30;35.80
18682;DHT22;9471;51.168;4.154;2022-08-11T14:28:46;36.40;34.90
18682;DHT22;9471;51.168;4.154;2022-08-11T14:31:14;36.40;34.70
18682;DHT22;9471;51.168;4.154;2022-08-11T14:33:42;36.40;35.20
18682;DHT22;9471;51.168;4.154;2022-08-11T14:36:10;36.40;35.00
18682;DHT22;9471;51.168;4.154;2022-08-11T14:38:39;36.40;34.70
18682;DHT22;9471;51.168;4.154;2022-08-11T14:41:07;36.60;35.10
18682;DHT22;9471;51.168;4.154;2022-08-11T14:43:52;36.70;35.10
18682;DHT22;9471;51.168;4.154;2022-08-11T14:46:39;36.80;34.10
18682;DHT22;9471;51.168;4.154;2022-08-11T14:49:25;36.70;34.20
18682;DHT22;9471;51.168;4.154;2022-08-11T14:51:53;36.40;34.20
18682;DHT22;9471;51.168;4.154;2022-08-11T14:54:25;36.80;34.00
18682;DHT22;9471;51.168;4.154;2022-08-11T14:57:26;37.00;33.90
18682;DHT22;9471;51.168;4.154;2022-08-11T14:59:54;37.30;33.50
18682;DHT22;9471;51.168;4.154;2022-08-11T15:02:23;37.40;32.60
18682;DHT22;9471;51.168;4.154;2022-08-11T15:05:08;37.10;32.10
18682;DHT22;9471;51.168;4.154;2022-08-11T15:07:35;36.90;32.10
18682;DHT22;9471;51.168;4.154;2022-08-11T15:10:06;37.00;32.30
18682;DHT22;9471;51.168;4.154;2022-08-11T15:12:35;37.10;32.60
18682;DHT22;9471;51.168;4.154;2022-08-11T15:15:05;37.40;32.90
18682;DHT22;9471;51.168;4.154;2022-08-11T15:17:50;37.10;32.70
18682;DHT22;9471;51.168;4.154;2022-08-11T15:20:20;37.00;33.00
18682;DHT22;9471;51.168;4.154;2022-08-11T15:23:05;37.10;33.60
18682;DHT22;9471;51.168;4.154;2022-08-11T15:25:56;36.90;33.10
18682;DHT22;9471;51.168;4.154;2022-08-11T15:28:24;37.30;32.70
18682;DHT22;9471;51.168;4.154;2022-08-11T15:31:10;37.70;32.80
18682;DHT22;9471;51.168;4.154;2022-08-11T15:34:03;38.00;32.20
18682;DHT22;9471;51.168;4.154;2022-08-11T15:36:50;38.50;32.40
18682;DHT22;9471;51.168;4.154;2022-08-11T15:39:45;38.50;32.20
18682;DHT22;9471;51.168;4.154;2022-08-11T15:42:40;38.90;31.30
18682;DHT22;9471;51.168;4.154;2022-08-11T15:45:29;39.10;31.60
18682;DHT22;9471;51.168;4.154;2022-08-11T15:48:26;39.20;30.50
18682;DHT22;9471;51.168;4.154;2022-08-11T15:50:57;39.50;30.60
18682;DHT22;9471;51.168;4.154;2022-08-11T15:53:33;39.30;29.60
18682;DHT22;9471;51.168;4.154;2022-08-11T15:56:05;39.00;29.80
18682;DHT22;9471;51.168;4.154;2022-08-11T15:58:38;38.90;29.60
18682;DHT22;9471;51.168;4.154;2022-08-11T16:01:24;39.10;29.60
18682;DHT22;9471;51.168;4.154;2022-08-11T16:04:15;39.20;29.80
18682;DHT22;9471;51.168;4.154;2022-08-11T16:06:50;39.20;29.70
18682;DHT22;9471;51.168;4.154;2022-08-11T16:09:22;38.90;30.00
18682;DHT22;9471;51.168;4.154;2022-08-11T16:11:51;39.20;30.00
18682;DHT22;9471;51.168;4.154;2022-08-11T16:14:20;39.30;29.90
18682;DHT22;9471;51.168;4.154;2022-08-11T16:17:09;39.40;29.90
18682;DHT22;9471;51.168;4.154;2022-08-11T16:19:39;39.80;29.60
18682;DHT22;9471;51.168;4.154;2022-08-11T16:22:09;39.90;29.40
18682;DHT22;9471;51.168;4.154;2022-08-11T16:24:40;40.00;29.20
18682;DHT22;9471;51.168;4.154;2022-08-11T16:27:10;40.00;29.30
18682;DHT22;9471;51.168;4.154;2022-08-11T16:29:42;39.60;28.90
18682;DHT22;9471;51.168;4.154;2022-08-11T16:32:12;39.60;28.70
18682;DHT22;9471;51.168;4.154;2022-08-11T16:34:48;39.60;28.70
18682;DHT22;9471;51.168;4.154;2022-08-11T16:37:34;39.30;28.90
18682;DHT22;9471;51.168;4.154;2022-08-11T16:40:20;39.20;28.70
18682;DHT22;9471;51.168;4.154;2022-08-11T16:42:49;39.50;28.40
18682;DHT22;9471;51.168;4.154;2022-08-11T16:45:36;39.10;28.50
18682;DHT22;9471;51.168;4.154;2022-08-11T16:48:23;39.40;28.40
18682;DHT22;9471;51.168;4.154;2022-08-11T16:50:53;39.50;28.40
18682;DHT22;9471;51.168;4.154;2022-08-11T16:53:20;39.30;28.70
18682;DHT22;9471;51.168;4.154;2022-08-11T16:55:48;38.90;29.10
18682;DHT22;9471;51.168;4.154;2022-08-11T16:58:17;39.20;29.30
18682;DHT22;9471;51.168;4.154;2022-08-11T17:01:05;39.40;29.30
18682;DHT22;9471;51.168;4.154;2022-08-11T17:03:33;39.30;29.30
18682;DHT22;9471;51.168;4.154;2022-08-11T17:06:22;39.10;29.50
18682;DHT22;9471;51.168;4.154;2022-08-11T17:09:22;39.20;29.60
18682;DHT22;9471;51.168;4.154;2022-08-11T17:12:07;39.40;29.50
18682;DHT22;9471;51.168;4.154;2022-08-11T17:14:55;39.40;29.60
18682;DHT22;9471;51.168;4.154;2022-08-11T17:17:26;39.30;29.60
18682;DHT22;9471;51.168;4.154;2022-08-11T17:19:57;39.20;29.30
18682;DHT22;9471;51.168;4.154;2022-08-11T17:22:27;38.70;29.30
18682;DHT22;9471;51.168;4.154;2022-08-11T17:25:14;38.60;29.30
18682;DHT22;9471;51.168;4.154;2022-08-11T17:27:42;38.40;29.40
18682;DHT22;9471;51.168;4.154;2022-08-11T17:30:11;38.60;29.40
18682;DHT22;9471;51.168;4.154;2022-08-11T17:32:44;38.50;29.50
18682;DHT22;9471;51.168;4.154;2022-08-11T17:35:35;38.30;29.40
18682;DHT22;9471;51.168;4.154;2022-08-11T17:38:05;37.80;29.90
18682;DHT22;9471;51.168;4.154;2022-08-11T17:40:34;37.60;30.00
18682;DHT22;9471;51.168;4.154;2022-08-11T17:43:05;37.20;30.40
18682;DHT22;9471;51.168;4.154;2022-08-11T17:45:50;36.90;30.70
18682;DHT22;9471;51.168;4.154;2022-08-11T17:48:40;36.40;31.40
18682;DHT22;9471;51.168;4.154;2022-08-11T17:51:16;35.90;31.90
18682;DHT22;9471;51.168;4.154;2022-08-11T17:54:06;35.70;32.50
18682;DHT22;9471;51.168;4.154;2022-08-11T17:56:52;35.40;32.90